sensor_id;sensor_type;location;lat;lon;timestamp;temperature;humidity
80695;DHT22;70059;42.702;23.312;2024-02-23T00:00:16;9.40;52.10
80695;DHT22;70059;42.702;23.312;2024-02-23T00:02:43;9.30;52.10
80695;DHT22;70059;42.702;23.312;2024-02-23T00:05:09;9.20;52.50
80695;DHT22;70059;42.702;23.312;2024-02-23T00:07:34;9.20;52.90
80695;DHT22;70059;42.702;23.312;2024-02-23T00:10:00;9.40;52.40
80695;DHT22;70059;42.702;23.312;2024-02-23T00:12:25;9.00;52.40
80695;DHT22;70059;42.702;23.312;2024-02-23T00:14:51;8.60;53.70
80695;DHT22;70059;42.702;23.312;2024-02-23T00:17:17;8.80;54.00
80695;DHT22;70059;42.702;23.312;2024-02-23T00:19:45;8.90;54.10
80695;DHT22;70059;42.702;23.312;2024-02-23T00:22:11;8.90;53.90
80695;DHT22;70059;42.702;23.312;2024-02-23T00:24:36;8.80;53.30
80695;DHT22;70059;42.702;23.312;2024-02-23T00:27:09;8.80;53.90
80695;DHT22;70059;42.702;23.312;2024-02-23T00:29:34;8.90;54.20
80695;DHT22;70059;42.702;23.312;2024-02-23T00:32:00;9.00;53.40
80695;DHT22;70059;42.702;23.312;2024-02-23T00:34:26;8.90;53.40
80695;DHT22;70059;42.702;23.312;2024-02-23T00:36:52;8.90;54.10
80695;DHT22;70059;42.702;23.312;2024-02-23T00:39:18;9.00;53.50
80695;DHT22;70059;42.702;23.312;2024-02-23T00:41:43;9.00;53.80
80695;DHT22;70059;42.702;23.312;2024-02-23T00:44:09;9.40;52.30
80695;DHT22;70059;42.702;23.312;2024-02-23T00:46:34;9.50;51.50
80695;DHT22;70059;42.702;23.312;2024-02-23T00:49:00;9.40;51.80
80695;DHT22;70059;42.702;23.312;2024-02-23T00:51:26;9.30;52.80
80695;DHT22;70059;42.702;23.312;2024-02-23T00:53:52;9.10;52.30
80695;DHT22;70059;42.702;23.312;2024-02-23T00:56:18;9.00;53.10
80695;DHT22;70059;42.702;23.312;2024-02-23T00:58:43;9.10;53.60
80695;DHT22;70059;42.702;23.312;2024-02-23T01:01:09;9.20;53.10
80695;DHT22;70059;42.702;23.312;2024-02-23T01:03:34;9.20;52.70
80695;DHT22;70059;42.702;23.312;2024-02-23T01:06:00;9.30;52.70
80695;DHT22;70059;42.702;23.312;2024-02-23T01:08:26;9.20;52.60
80695;DHT22;70059;42.702;23.312;2024-02-23T01:10:51;9.20;53.20
80695;DHT22;70059;42.702;23.312;2024-02-23T01:13:17;9.30;52.80
80695;DHT22;70059;42.702;23.312;2024-02-23T01:15:43;9.50;51.70
80695;DHT22;70059;42.702;23.312;2024-02-23T01:18:08;9.50;51.70
80695;DHT22;70059;42.702;23.312;2024-02-23T01:20:34;9.50;53.20
80695;DHT22;70059;42.702;23.312;2024-02-23T01:23:00;9.50;52.80
80695;DHT22;70059;42.702;23.312;2024-02-23T01:25:26;9.40;53.10
80695;DHT22;70059;42.702;23.312;2024-02-23T01:27:52;9.20;52.80
80695;DHT22;70059;42.702;23.312;2024-02-23T01:30:17;9.20;53.50
80695;DHT22;70059;42.702;23.312;2024-02-23T01:32:47;9.20;54.00
80695;DHT22;70059;42.702;23.312;2024-02-23T01:35:20;9.30;53.20
80695;DHT22;70059;42.702;23.312;2024-02-23T01:37:45;9.20;53.20
80695;DHT22;70059;42.702;23.312;2024-02-23T01:40:18;9.30;54.40
80695;DHT22;70059;42.702;23.312;2024-02-23T01:42:45;9.20;53.40
80695;DHT22;70059;42.702;23.312;2024-02-23T01:45:10;9.20;53.80
80695;DHT22;70059;42.702;23.312;2024-02-23T01:47:36;9.20;53.60
80695;DHT22;70059;42.702;23.312;2024-02-23T01:50:02;9.40;52.30
80695;DHT22;70059;42.702;23.312;2024-02-23T01:52:28;9.20;52.20
80695;DHT22;70059;42.702;23.312;2024-02-23T01:54:55;8.60;53.70
80695;DHT22;70059;42.702;23.312;2024-02-23T01:57:22;8.40;55.30
80695;DHT22;70059;42.702;23.312;2024-02-23T01:59:48;8.60;55.20
80695;DHT22;70059;42.702;23.312;2024-02-23T02:02:15;8.90;54.10
80695;DHT22;70059;42.702;23.312;2024-02-23T02:04:42;8.90;53.50
80695;DHT22;70059;42.702;23.312;2024-02-23T02:07:08;8.80;54.20
80695;DHT22;70059;42.702;23.312;2024-02-23T02:09:34;8.90;53.80
80695;DHT22;70059;42.702;23.312;2024-02-23T02:12:00;9.00;54.20
80695;DHT22;70059;42.702;23.312;2024-02-23T02:14:26;9.10;54.50
80695;DHT22;70059;42.702;23.312;2024-02-23T02:16:55;9.20;53.10
80695;DHT22;70059;42.702;23.312;2024-02-23T02:19:21;9.30;52.40
80695;DHT22;70059;42.702;23.312;2024-02-23T02:21:46;9.20;53.30
80695;DHT22;70059;42.702;23.312;2024-02-23T02:24:19;9.10;54.20
80695;DHT22;70059;42.702;23.312;2024-02-23T02:26:44;9.10;53.90
80695;DHT22;70059;42.702;23.312;2024-02-23T02:29:13;9.50;53.00
80695;DHT22;70059;42.702;23.312;2024-02-23T02:31:39;9.50;52.10
80695;DHT22;70059;42.702;23.312;2024-02-23T02:34:04;9.30;52.50
80695;DHT22;70059;42.702;23.312;2024-02-23T02:36:30;9.10;53.50
80695;DHT22;70059;42.702;23.312;2024-02-23T02:38:56;9.10;54.50
80695;DHT22;70059;42.702;23.312;2024-02-23T02:41:24;9.00;54.20
80695;DHT22;70059;42.702;23.312;2024-02-23T02:43:53;8.80;54.60
80695;DHT22;70059;42.702;23.312;2024-02-23T02:46:18;8.90;54.40
80695;DHT22;70059;42.702;23.312;2024-02-23T02:48:44;9.10;53.80
80695;DHT22;70059;42.702;23.312;2024-02-23T02:51:10;9.10;54.40
80695;DHT22;70059;42.702;23.312;2024-02-23T02:53:35;9.00;54.60
80695;DHT22;70059;42.702;23.312;2024-02-23T02:56:05;8.90;54.80
80695;DHT22;70059;42.702;23.312;2024-02-23T02:58:30;8.80;55.40
80695;DHT22;70059;42.702;23.312;2024-02-23T03:00:56;9.00;54.50
80695;DHT22;70059;42.702;23.312;2024-02-23T03:03:28;8.90;55.00
80695;DHT22;70059;42.702;23.312;2024-02-23T03:06:00;8.80;55.40
80695;DHT22;70059;42.702;23.312;2024-02-23T03:08:25;8.80;56.60
80695;DHT22;70059;42.702;23.312;2024-02-23T03:10:51;8.90;55.30
80695;DHT22;70059;42.702;23.312;2024-02-23T03:13:17;8.80;55.60
80695;DHT22;70059;42.702;23.312;2024-02-23T03:15:43;8.90;55.70
80695;DHT22;70059;42.702;23.312;2024-02-23T03:18:08;9.00;56.20
80695;DHT22;70059;42.702;23.312;2024-02-23T03:20:35;8.90;54.80
80695;DHT22;70059;42.702;23.312;2024-02-23T03:23:01;8.50;57.20
80695;DHT22;70059;42.702;23.312;2024-02-23T03:25:29;8.40;57.50
80695;DHT22;70059;42.702;23.312;2024-02-23T03:27:54;8.60;56.40
80695;DHT22;70059;42.702;23.312;2024-02-23T03:30:20;8.70;56.40
80695;DHT22;70059;42.702;23.312;2024-02-23T03:32:46;8.70;55.80
80695;DHT22;70059;42.702;23.312;2024-02-23T03:35:12;8.60;56.20
80695;DHT22;70059;42.702;23.312;2024-02-23T03:37:38;8.60;56.50
80695;DHT22;70059;42.702;23.312;2024-02-23T03:40:08;8.60;56.60
80695;DHT22;70059;42.702;23.312;2024-02-23T03:42:35;8.60;57.10
80695;DHT22;70059;42.702;23.312;2024-02-23T03:45:01;8.70;57.20
80695;DHT22;70059;42.702;23.312;2024-02-23T03:47:27;8.60;56.80
80695;DHT22;70059;42.702;23.312;2024-02-23T03:49:54;8.30;56.80
80695;DHT22;70059;42.702;23.312;2024-02-23T03:52:19;8.20;57.90
80695;DHT22;70059;42.702;23.312;2024-02-23T03:54:45;8.30;57.70
80695;DHT22;70059;42.702;23.312;2024-02-23T03:57:10;8.50;57.00
80695;DHT22;70059;42.702;23.312;2024-02-23T03:59:36;8.60;56.70
80695;DHT22;70059;42.702;23.312;2024-02-23T04:02:03;8.80;56.20
80695;DHT22;70059;42.702;23.312;2024-02-23T04:04:29;8.70;56.20
80695;DHT22;70059;42.702;23.312;2024-02-23T04:06:55;8.60;57.50
80695;DHT22;70059;42.702;23.312;2024-02-23T04:09:27;8.50;58.00
80695;DHT22;70059;42.702;23.312;2024-02-23T04:11:52;8.70;57.30
80695;DHT22;70059;42.702;23.312;2024-02-23T04:14:18;8.80;56.60
80695;DHT22;70059;42.702;23.312;2024-02-23T04:16:43;8.70;56.70
80695;DHT22;70059;42.702;23.312;2024-02-23T04:19:09;8.80;56.40
80695;DHT22;70059;42.702;23.312;2024-02-23T04:21:35;8.60;56.00
80695;DHT22;70059;42.702;23.312;2024-02-23T04:24:00;8.40;56.50
80695;DHT22;70059;42.702;23.312;2024-02-23T04:26:26;8.30;57.00
80695;DHT22;70059;42.702;23.312;2024-02-23T04:28:51;8.30;57.40
80695;DHT22;70059;42.702;23.312;2024-02-23T04:31:24;8.00;57.90
80695;DHT22;70059;42.702;23.312;2024-02-23T04:33:49;7.60;59.30
80695;DHT22;70059;42.702;23.312;2024-02-23T04:36:19;7.60;59.60
80695;DHT22;70059;42.702;23.312;2024-02-23T04:38:45;7.80;59.20
80695;DHT22;70059;42.702;23.312;2024-02-23T04:41:10;7.70;58.90
80695;DHT22;70059;42.702;23.312;2024-02-23T04:43:36;7.40;59.80
80695;DHT22;70059;42.702;23.312;2024-02-23T04:46:02;7.40;60.20
80695;DHT22;70059;42.702;23.312;2024-02-23T04:48:27;7.40;60.10
80695;DHT22;70059;42.702;23.312;2024-02-23T04:50:54;7.60;59.70
80695;DHT22;70059;42.702;23.312;2024-02-23T04:53:19;7.70;59.60
80695;DHT22;70059;42.702;23.312;2024-02-23T04:55:45;7.70;59.40
80695;DHT22;70059;42.702;23.312;2024-02-23T04:58:11;7.80;59.20
80695;DHT22;70059;42.702;23.312;2024-02-23T05:00:37;7.90;58.60
80695;DHT22;70059;42.702;23.312;2024-02-23T05:03:03;7.70;58.50
80695;DHT22;70059;42.702;23.312;2024-02-23T05:05:30;7.80;59.00
80695;DHT22;70059;42.702;23.312;2024-02-23T05:07:57;8.00;58.10
80695;DHT22;70059;42.702;23.312;2024-02-23T05:10:23;7.70;58.90
80695;DHT22;70059;42.702;23.312;2024-02-23T05:12:49;7.30;60.30
80695;DHT22;70059;42.702;23.312;2024-02-23T05:15:15;7.30;60.90
80695;DHT22;70059;42.702;23.312;2024-02-23T05:17:41;7.50;60.50
80695;DHT22;70059;42.702;23.312;2024-02-23T05:20:13;7.60;59.70
80695;DHT22;70059;42.702;23.312;2024-02-23T05:22:39;7.40;60.20
80695;DHT22;70059;42.702;23.312;2024-02-23T05:25:06;7.10;61.10
80695;DHT22;70059;42.702;23.312;2024-02-23T05:27:32;7.00;61.50
80695;DHT22;70059;42.702;23.312;2024-02-23T05:30:04;7.40;64.20
80695;DHT22;70059;42.702;23.312;2024-02-23T05:32:32;8.40;57.50
80695;DHT22;70059;42.702;23.312;2024-02-23T05:34:58;8.60;56.00
80695;DHT22;70059;42.702;23.312;2024-02-23T05:37:23;8.50;56.10
80695;DHT22;70059;42.702;23.312;2024-02-23T05:39:49;8.40;56.30
80695;DHT22;70059;42.702;23.312;2024-02-23T05:42:15;8.40;56.30
80695;DHT22;70059;42.702;23.312;2024-02-23T05:44:43;8.40;56.70
80695;DHT22;70059;42.702;23.312;2024-02-23T05:47:10;8.30;56.90
80695;DHT22;70059;42.702;23.312;2024-02-23T05:49:36;8.00;57.20
80695;DHT22;70059;42.702;23.312;2024-02-23T05:52:01;8.00;57.90
80695;DHT22;70059;42.702;23.312;2024-02-23T05:54:27;8.10;57.60
80695;DHT22;70059;42.702;23.312;2024-02-23T05:56:53;8.10;57.80
80695;DHT22;70059;42.702;23.312;2024-02-23T05:59:18;8.10;57.20
80695;DHT22;70059;42.702;23.312;2024-02-23T06:01:51;8.20;57.10
80695;DHT22;70059;42.702;23.312;2024-02-23T06:04:22;8.10;57.20
80695;DHT22;70059;42.702;23.312;2024-02-23T06:06:48;8.20;57.60
80695;DHT22;70059;42.702;23.312;2024-02-23T06:09:14;8.20;57.40
80695;DHT22;70059;42.702;23.312;2024-02-23T06:11:39;8.20;57.80
80695;DHT22;70059;42.702;23.312;2024-02-23T06:14:05;8.30;56.90
80695;DHT22;70059;42.702;23.312;2024-02-23T06:16:31;8.40;56.80
80695;DHT22;70059;42.702;23.312;2024-02-23T06:18:57;8.40;56.30
80695;DHT22;70059;42.702;23.312;2024-02-23T06:21:23;8.40;56.30
80695;DHT22;70059;42.702;23.312;2024-02-23T06:23:49;8.40;56.50
80695;DHT22;70059;42.702;23.312;2024-02-23T06:26:21;8.40;56.20
80695;DHT22;70059;42.702;23.312;2024-02-23T06:28:47;8.40;56.10
80695;DHT22;70059;42.702;23.312;2024-02-23T06:31:14;8.40;56.10
80695;DHT22;70059;42.702;23.312;2024-02-23T06:33:40;8.40;56.40
80695;DHT22;70059;42.702;23.312;2024-02-23T06:36:09;8.60;56.00
80695;DHT22;70059;42.702;23.312;2024-02-23T06:38:35;8.70;55.60
80695;DHT22;70059;42.702;23.312;2024-02-23T06:41:00;8.80;55.00
80695;DHT22;70059;42.702;23.312;2024-02-23T06:43:26;8.90;54.40
80695;DHT22;70059;42.702;23.312;2024-02-23T06:45:52;9.00;54.40
80695;DHT22;70059;42.702;23.312;2024-02-23T06:48:18;9.10;53.60
80695;DHT22;70059;42.702;23.312;2024-02-23T06:50:44;9.10;53.90
80695;DHT22;70059;42.702;23.312;2024-02-23T06:53:16;9.10;53.60
80695;DHT22;70059;42.702;23.312;2024-02-23T06:55:42;9.30;52.80
80695;DHT22;70059;42.702;23.312;2024-02-23T06:58:07;9.60;52.70
80695;DHT22;70059;42.702;23.312;2024-02-23T07:00:33;10.00;51.70
80695;DHT22;70059;42.702;23.312;2024-02-23T07:02:59;10.50;50.00
80695;DHT22;70059;42.702;23.312;2024-02-23T07:05:26;11.30;48.90
80695;DHT22;70059;42.702;23.312;2024-02-23T07:07:52;12.10;45.90
80695;DHT22;70059;42.702;23.312;2024-02-23T07:10:18;12.80;43.70
80695;DHT22;70059;42.702;23.312;2024-02-23T07:12:44;13.50;42.80
80695;DHT22;70059;42.702;23.312;2024-02-23T07:15:10;14.30;40.60
80695;DHT22;70059;42.702;23.312;2024-02-23T07:17:35;15.00;38.60
80695;DHT22;70059;42.702;23.312;2024-02-23T07:20:01;15.60;36.60
80695;DHT22;70059;42.702;23.312;2024-02-23T07:22:31;16.20;35.30
80695;DHT22;70059;42.702;23.312;2024-02-23T07:25:05;16.80;34.80
80695;DHT22;70059;42.702;23.312;2024-02-23T07:27:31;17.40;33.40
80695;DHT22;70059;42.702;23.312;2024-02-23T07:29:57;18.10;31.90
80695;DHT22;70059;42.702;23.312;2024-02-23T07:32:23;18.70;30.70
80695;DHT22;70059;42.702;23.312;2024-02-23T07:34:48;19.40;29.70
80695;DHT22;70059;42.702;23.312;2024-02-23T07:37:15;19.90;28.60
80695;DHT22;70059;42.702;23.312;2024-02-23T07:39:41;20.30;28.00
80695;DHT22;70059;42.702;23.312;2024-02-23T07:42:13;20.50;28.20
80695;DHT22;70059;42.702;23.312;2024-02-23T07:44:40;21.10;26.50
80695;DHT22;70059;42.702;23.312;2024-02-23T07:47:06;21.50;26.50
80695;DHT22;70059;42.702;23.312;2024-02-23T07:49:31;21.80;26.00
80695;DHT22;70059;42.702;23.312;2024-02-23T07:51:57;22.10;25.70
80695;DHT22;70059;42.702;23.312;2024-02-23T07:54:26;22.50;24.60
80695;DHT22;70059;42.702;23.312;2024-02-23T07:56:58;22.70;25.00
80695;DHT22;70059;42.702;23.312;2024-02-23T07:59:24;23.10;24.00
80695;DHT22;70059;42.702;23.312;2024-02-23T08:01:51;23.60;23.50
80695;DHT22;70059;42.702;23.312;2024-02-23T08:04:28;23.60;24.10
80695;DHT22;70059;42.702;23.312;2024-02-23T08:06:53;24.10;23.00
80695;DHT22;70059;42.702;23.312;2024-02-23T08:09:19;25.00;22.20
80695;DHT22;70059;42.702;23.312;2024-02-23T08:11:47;25.40;21.60
80695;DHT22;70059;42.702;23.312;2024-02-23T08:14:13;25.60;20.90
80695;DHT22;70059;42.702;23.312;2024-02-23T08:16:38;25.90;20.80
80695;DHT22;70059;42.702;23.312;2024-02-23T08:19:04;26.30;21.00
80695;DHT22;70059;42.702;23.312;2024-02-23T08:21:30;26.70;19.90
80695;DHT22;70059;42.702;23.312;2024-02-23T08:23:55;27.30;19.60
80695;DHT22;70059;42.702;23.312;2024-02-23T08:26:21;27.90;18.90
80695;DHT22;70059;42.702;23.312;2024-02-23T08:28:47;27.90;18.40
80695;DHT22;70059;42.702;23.312;2024-02-23T08:31:13;28.00;18.20
80695;DHT22;70059;42.702;23.312;2024-02-23T08:33:38;28.20;18.30
80695;DHT22;70059;42.702;23.312;2024-02-23T08:36:04;28.60;18.10
80695;DHT22;70059;42.702;23.312;2024-02-23T08:38:32;28.80;17.40
80695;DHT22;70059;42.702;23.312;2024-02-23T08:40:58;28.30;17.50
80695;DHT22;70059;42.702;23.312;2024-02-23T08:43:24;27.70;18.70
80695;DHT22;70059;42.702;23.312;2024-02-23T08:45:50;27.20;18.90
80695;DHT22;70059;42.702;23.312;2024-02-23T08:48:15;26.60;19.10
80695;DHT22;70059;42.702;23.312;2024-02-23T08:50:41;25.80;19.90
80695;DHT22;70059;42.702;23.312;2024-02-23T08:53:07;25.10;20.70
80695;DHT22;70059;42.702;23.312;2024-02-23T08:55:33;25.20;20.60
80695;DHT22;70059;42.702;23.312;2024-02-23T08:57:59;25.90;19.90
80695;DHT22;70059;42.702;23.312;2024-02-23T09:00:24;27.10;18.90
80695;DHT22;70059;42.702;23.312;2024-02-23T09:02:57;28.10;17.50
80695;DHT22;70059;42.702;23.312;2024-02-23T09:05:23;28.90;16.90
80695;DHT22;70059;42.702;23.312;2024-02-23T09:07:48;29.90;16.00
80695;DHT22;70059;42.702;23.312;2024-02-23T09:10:14;30.70;15.20
80695;DHT22;70059;42.702;23.312;2024-02-23T09:12:39;31.40;14.40
80695;DHT22;70059;42.702;23.312;2024-02-23T09:15:05;31.80;13.90
80695;DHT22;70059;42.702;23.312;2024-02-23T09:17:31;32.00;13.80
80695;DHT22;70059;42.702;23.312;2024-02-23T09:19:57;32.30;13.40
80695;DHT22;70059;42.702;23.312;2024-02-23T09:22:29;32.50;13.20
80695;DHT22;70059;42.702;23.312;2024-02-23T09:24:55;32.70;12.60
80695;DHT22;70059;42.702;23.312;2024-02-23T09:27:21;33.00;12.40
80695;DHT22;70059;42.702;23.312;2024-02-23T09:29:47;33.20;12.80
80695;DHT22;70059;42.702;23.312;2024-02-23T09:32:13;33.50;12.60
80695;DHT22;70059;42.702;23.312;2024-02-23T09:34:38;33.90;11.70
80695;DHT22;70059;42.702;23.312;2024-02-23T09:37:04;34.50;11.70
80695;DHT22;70059;42.702;23.312;2024-02-23T09:39:30;35.10;11.30
80695;DHT22;70059;42.702;23.312;2024-02-23T09:41:56;35.70;10.60
80695;DHT22;70059;42.702;23.312;2024-02-23T09:44:22;35.50;10.50
80695;DHT22;70059;42.702;23.312;2024-02-23T09:46:49;36.30;10.20
80695;DHT22;70059;42.702;23.312;2024-02-23T09:49:18;37.10;9.80
80695;DHT22;70059;42.702;23.312;2024-02-23T09:51:43;37.70;8.90
80695;DHT22;70059;42.702;23.312;2024-02-23T09:54:16;38.20;8.10
80695;DHT22;70059;42.702;23.312;2024-02-23T09:56:42;37.80;8.40
80695;DHT22;70059;42.702;23.312;2024-02-23T09:59:08;38.00;8.20
80695;DHT22;70059;42.702;23.312;2024-02-23T10:01:34;37.30;8.50
80695;DHT22;70059;42.702;23.312;2024-02-23T10:04:01;37.10;8.60
80695;DHT22;70059;42.702;23.312;2024-02-23T10:06:29;37.70;8.60
80695;DHT22;70059;42.702;23.312;2024-02-23T10:09:02;35.30;9.60
80695;DHT22;70059;42.702;23.312;2024-02-23T10:11:29;33.70;11.40
80695;DHT22;70059;42.702;23.312;2024-02-23T10:13:55;32.70;12.30
80695;DHT22;70059;42.702;23.312;2024-02-23T10:21:24;37.30;8.60
80695;DHT22;70059;42.702;23.312;2024-02-23T10:23:50;38.30;7.70
80695;DHT22;70059;42.702;23.312;2024-02-23T10:26:17;38.50;7.60
80695;DHT22;70059;42.702;23.312;2024-02-23T10:28:45;38.90;7.70
80695;DHT22;70059;42.702;23.312;2024-02-23T10:31:12;38.00;7.60
80695;DHT22;70059;42.702;23.312;2024-02-23T10:33:39;36.40;8.60
80695;DHT22;70059;42.702;23.312;2024-02-23T10:36:06;30.90;12.00
80695;DHT22;70059;42.702;23.312;2024-02-23T10:42:02;22.50;21.20
80695;DHT22;70059;42.702;23.312;2024-02-23T10:44:29;21.50;22.60
80695;DHT22;70059;42.702;23.312;2024-02-23T10:46:56;20.80;23.90
80695;DHT22;70059;42.702;23.312;2024-02-23T10:49:24;21.80;23.10
80695;DHT22;70059;42.702;23.312;2024-02-23T10:51:53;23.40;21.70
80695;DHT22;70059;42.702;23.312;2024-02-23T10:54:20;24.80;19.50
80695;DHT22;70059;42.702;23.312;2024-02-23T10:56:49;24.50;19.30
80695;DHT22;70059;42.702;23.312;2024-02-23T10:59:15;26.60;18.00
80695;DHT22;70059;42.702;23.312;2024-02-23T11:01:53;28.30;16.40
80695;DHT22;70059;42.702;23.312;2024-02-23T11:04:20;30.30;14.60
80695;DHT22;70059;42.702;23.312;2024-02-23T11:06:50;31.50;13.40
80695;DHT22;70059;42.702;23.312;2024-02-23T11:09:17;29.40;14.60
80695;DHT22;70059;42.702;23.312;2024-02-23T11:11:56;30.40;14.40
80695;DHT22;70059;42.702;23.312;2024-02-23T11:14:39;28.60;15.00
80695;DHT22;70059;42.702;23.312;2024-02-23T11:17:18;29.20;15.10
80695;DHT22;70059;42.702;23.312;2024-02-23T11:19:50;27.00;17.20
80695;DHT22;70059;42.702;23.312;2024-02-23T11:22:33;26.50;17.70
80695;DHT22;70059;42.702;23.312;2024-02-23T11:25:07;25.40;19.00
80695;DHT22;70059;42.702;23.312;2024-02-23T11:27:39;26.30;17.80
80695;DHT22;70059;42.702;23.312;2024-02-23T11:30:10;27.10;17.20
80695;DHT22;70059;42.702;23.312;2024-02-23T11:35:04;26.10;18.30
80695;DHT22;70059;42.702;23.312;2024-02-23T11:37:32;25.60;18.90
80695;DHT22;70059;42.702;23.312;2024-02-23T11:40:00;26.10;18.10
80695;DHT22;70059;42.702;23.312;2024-02-23T11:42:27;26.20;18.10
80695;DHT22;70059;42.702;23.312;2024-02-23T11:44:59;25.80;18.50
80695;DHT22;70059;42.702;23.312;2024-02-23T11:47:26;25.60;18.70
80695;DHT22;70059;42.702;23.312;2024-02-23T11:49:52;25.50;19.10
80695;DHT22;70059;42.702;23.312;2024-02-23T11:52:17;24.90;19.40
80695;DHT22;70059;42.702;23.312;2024-02-23T11:54:43;23.00;21.30
80695;DHT22;70059;42.702;23.312;2024-02-23T11:57:09;21.60;23.80
80695;DHT22;70059;42.702;23.312;2024-02-23T11:59:35;21.90;23.30
80695;DHT22;70059;42.702;23.312;2024-02-23T12:02:01;21.30;23.50
80695;DHT22;70059;42.702;23.312;2024-02-23T12:04:27;20.80;25.40
80695;DHT22;70059;42.702;23.312;2024-02-23T12:06:54;21.00;24.40
80695;DHT22;70059;42.702;23.312;2024-02-23T12:09:21;20.90;23.90
80695;DHT22;70059;42.702;23.312;2024-02-23T12:11:47;20.30;25.00
80695;DHT22;70059;42.702;23.312;2024-02-23T12:14:13;20.30;25.40
80695;DHT22;70059;42.702;23.312;2024-02-23T12:16:40;19.90;25.20
80695;DHT22;70059;42.702;23.312;2024-02-23T12:19:08;19.60;26.30
80695;DHT22;70059;42.702;23.312;2024-02-23T12:21:34;19.70;25.70
80695;DHT22;70059;42.702;23.312;2024-02-23T12:24:07;19.80;25.40
80695;DHT22;70059;42.702;23.312;2024-02-23T12:26:33;20.30;25.10
80695;DHT22;70059;42.702;23.312;2024-02-23T12:29:02;20.50;24.40
80695;DHT22;70059;42.702;23.312;2024-02-23T12:31:30;19.70;25.40
80695;DHT22;70059;42.702;23.312;2024-02-23T12:33:57;20.10;25.90
80695;DHT22;70059;42.702;23.312;2024-02-23T12:36:23;20.50;25.30
80695;DHT22;70059;42.702;23.312;2024-02-23T12:38:49;20.90;24.50
80695;DHT22;70059;42.702;23.312;2024-02-23T12:41:15;21.50;23.30
80695;DHT22;70059;42.702;23.312;2024-02-23T12:43:41;21.70;23.10
80695;DHT22;70059;42.702;23.312;2024-02-23T12:46:06;21.80;23.10
80695;DHT22;70059;42.702;23.312;2024-02-23T12:48:37;21.80;23.50
80695;DHT22;70059;42.702;23.312;2024-02-23T12:51:03;21.70;23.80
80695;DHT22;70059;42.702;23.312;2024-02-23T12:53:38;21.70;23.70
80695;DHT22;70059;42.702;23.312;2024-02-23T12:56:19;21.80;23.10
80695;DHT22;70059;42.702;23.312;2024-02-23T12:58:45;22.00;23.20
80695;DHT22;70059;42.702;23.312;2024-02-23T13:01:12;22.00;23.00
80695;DHT22;70059;42.702;23.312;2024-02-23T13:03:43;21.70;23.30
80695;DHT22;70059;42.702;23.312;2024-02-23T13:06:09;21.40;23.20
80695;DHT22;70059;42.702;23.312;2024-02-23T13:08:36;21.20;23.80
80695;DHT22;70059;42.702;23.312;2024-02-23T13:11:01;21.30;24.00
80695;DHT22;70059;42.702;23.312;2024-02-23T13:13:27;21.50;23.50
80695;DHT22;70059;42.702;23.312;2024-02-23T13:15:54;21.20;23.00
80695;DHT22;70059;42.702;23.312;2024-02-23T13:18:20;21.00;23.80
80695;DHT22;70059;42.702;23.312;2024-02-23T13:20:46;20.00;24.20
80695;DHT22;70059;42.702;23.312;2024-02-23T13:23:18;19.40;25.50
80695;DHT22;70059;42.702;23.312;2024-02-23T13:25:44;19.20;25.80
80695;DHT22;70059;42.702;23.312;2024-02-23T13:28:10;19.80;25.90
80695;DHT22;70059;42.702;23.312;2024-02-23T13:30:36;19.80;25.00
80695;DHT22;70059;42.702;23.312;2024-02-23T13:33:03;19.80;25.40
80695;DHT22;70059;42.702;23.312;2024-02-23T13:35:29;19.50;25.50
80695;DHT22;70059;42.702;23.312;2024-02-23T13:37:55;19.50;25.70
80695;DHT22;70059;42.702;23.312;2024-02-23T13:40:20;19.60;25.00
80695;DHT22;70059;42.702;23.312;2024-02-23T13:42:46;19.80;25.30
80695;DHT22;70059;42.702;23.312;2024-02-23T13:45:16;19.90;24.90
80695;DHT22;70059;42.702;23.312;2024-02-23T13:47:43;19.90;24.60
80695;DHT22;70059;42.702;23.312;2024-02-23T13:50:10;19.60;25.10
80695;DHT22;70059;42.702;23.312;2024-02-23T13:52:36;19.30;25.50
80695;DHT22;70059;42.702;23.312;2024-02-23T13:55:11;19.40;25.60
80695;DHT22;70059;42.702;23.312;2024-02-23T13:57:39;19.50;25.60
80695;DHT22;70059;42.702;23.312;2024-02-23T14:00:07;19.50;25.30
80695;DHT22;70059;42.702;23.312;2024-02-23T14:02:38;19.50;25.30
80695;DHT22;70059;42.702;23.312;2024-02-23T14:05:06;19.10;25.90
80695;DHT22;70059;42.702;23.312;2024-02-23T14:07:35;19.00;26.20
80695;DHT22;70059;42.702;23.312;2024-02-23T14:10:02;18.80;26.40
80695;DHT22;70059;42.702;23.312;2024-02-23T14:12:29;18.60;26.80
80695;DHT22;70059;42.702;23.312;2024-02-23T14:14:54;18.10;27.50
80695;DHT22;70059;42.702;23.312;2024-02-23T14:17:20;18.40;26.90
80695;DHT22;70059;42.702;23.312;2024-02-23T14:19:46;19.00;26.60
80695;DHT22;70059;42.702;23.312;2024-02-23T14:22:12;19.60;25.70
80695;DHT22;70059;42.702;23.312;2024-02-23T14:24:38;19.40;25.70
80695;DHT22;70059;42.702;23.312;2024-02-23T14:27:10;19.60;25.70
80695;DHT22;70059;42.702;23.312;2024-02-23T14:29:36;20.20;24.90
80695;DHT22;70059;42.702;23.312;2024-02-23T14:32:02;21.10;23.70
80695;DHT22;70059;42.702;23.312;2024-02-23T14:34:27;21.80;22.60
80695;DHT22;70059;42.702;23.312;2024-02-23T14:36:54;21.40;22.90
80695;DHT22;70059;42.702;23.312;2024-02-23T14:39:20;21.20;23.20
80695;DHT22;70059;42.702;23.312;2024-02-23T14:41:46;21.40;23.20
80695;DHT22;70059;42.702;23.312;2024-02-23T14:44:12;21.30;23.60
80695;DHT22;70059;42.702;23.312;2024-02-23T14:46:37;20.70;24.50
80695;DHT22;70059;42.702;23.312;2024-02-23T14:49:03;20.70;24.70
80695;DHT22;70059;42.702;23.312;2024-02-23T14:51:29;20.30;25.40
80695;DHT22;70059;42.702;23.312;2024-02-23T14:53:55;19.90;25.60
80695;DHT22;70059;42.702;23.312;2024-02-23T14:56:21;19.40;26.60
80695;DHT22;70059;42.702;23.312;2024-02-23T14:58:46;19.50;26.30
80695;DHT22;70059;42.702;23.312;2024-02-23T15:01:12;19.60;26.10
80695;DHT22;70059;42.702;23.312;2024-02-23T15:03:44;19.50;26.30
80695;DHT22;70059;42.702;23.312;2024-02-23T15:06:23;18.60;27.70
80695;DHT22;70059;42.702;23.312;2024-02-23T15:08:49;18.80;27.30
80695;DHT22;70059;42.702;23.312;2024-02-23T15:11:15;19.00;26.90
80695;DHT22;70059;42.702;23.312;2024-02-23T15:13:41;18.50;27.60
80695;DHT22;70059;42.702;23.312;2024-02-23T15:16:06;18.20;28.40
80695;DHT22;70059;42.702;23.312;2024-02-23T15:18:32;18.30;28.50
80695;DHT22;70059;42.702;23.312;2024-02-23T15:20:58;18.50;28.10
80695;DHT22;70059;42.702;23.312;2024-02-23T15:23:23;19.00;27.50
80695;DHT22;70059;42.702;23.312;2024-02-23T15:25:50;19.00;27.30
80695;DHT22;70059;42.702;23.312;2024-02-23T15:28:22;18.70;27.40
80695;DHT22;70059;42.702;23.312;2024-02-23T15:30:50;18.70;27.70